createdAt,value
2019-02-28T00:02:07.858Z,15.07
2019-02-28T00:04:38.986Z,13.43
2019-02-28T00:07:08.859Z,15.23
2019-02-28T00:09:40.057Z,14.50
2019-02-28T00:12:13.532Z,16.77
2019-02-28T00:14:45.619Z,13.10
2019-02-28T00:17:25.528Z,12.73
2019-02-28T00:19:57.994Z,11.83
2019-02-28T00:22:29.095Z,13.20
2019-02-28T00:25:01.194Z,14.57
2019-02-28T00:27:30.458Z,15.33
2019-02-28T00:30:00.900Z,13.80
2019-02-28T00:32:56.410Z,16.43
2019-02-28T00:35:25.583Z,12.90
2019-02-28T00:37:56.632Z,15.80
2019-02-28T00:40:28.156Z,14.97
2019-02-28T00:42:58.034Z,16.77
2019-02-28T00:45:28.208Z,13.03
2019-02-28T00:47:58.171Z,14.90
2019-02-28T00:50:28.698Z,16.37
2019-02-28T00:52:59.782Z,13.57
2019-02-28T00:55:30.648Z,14.33
2019-02-28T00:58:00.814Z,14.73
2019-02-28T01:00:31.781Z,13.83
2019-02-28T01:03:01.876Z,15.00
2019-02-28T01:05:32.498Z,17.90
2019-02-28T01:08:04.266Z,17.97
2019-02-28T01:10:38.955Z,14.27
2019-02-28T01:13:06.043Z,13.93
2019-02-28T01:15:44.603Z,16.97
2019-02-28T01:18:10.827Z,13.47
2019-02-28T01:20:41.384Z,14.17
2019-02-28T01:23:11.161Z,14.83
2019-02-28T01:25:44.359Z,16.40
2019-02-28T01:28:14.778Z,17.87
2019-02-28T01:30:45.522Z,14.53
2019-02-28T01:33:16.432Z,15.97
2019-02-28T01:35:46.302Z,17.17
2019-02-28T01:38:25.210Z,15.63
2019-02-28T01:40:55.217Z,20.97
2019-02-28T01:43:28.805Z,15.03
2019-02-28T01:45:57.514Z,14.50
2019-02-28T01:48:27.306Z,14.97
2019-02-28T01:51:00.843Z,15.63
2019-02-28T01:53:35.627Z,14.83
2019-02-28T01:56:06.041Z,14.97
2019-02-28T01:58:35.819Z,14.43
2019-02-28T02:01:06.332Z,15.77
2019-02-28T02:03:36.146Z,14.50
2019-02-28T02:06:06.527Z,16.87
2019-02-28T02:08:37.788Z,13.80
2019-02-28T02:11:14.978Z,14.53
2019-02-28T02:13:45.109Z,13.77
2019-02-28T02:16:15.235Z,15.13
2019-02-28T02:18:47.703Z,12.97
2019-02-28T02:21:18.581Z,18.17
2019-02-28T02:23:49.581Z,16.67
2019-02-28T02:26:20.927Z,14.07
2019-02-28T02:28:51.361Z,17.47
2019-02-28T02:31:27.270Z,18.17
2019-02-28T02:33:52.907Z,14.47
2019-02-28T02:36:22.879Z,15.47
2019-02-28T02:38:53.502Z,17.37
2019-02-28T02:41:23.364Z,17.37
2019-02-28T02:43:54.934Z,16.60
2019-02-28T02:46:25.475Z,15.70
2019-02-28T02:48:56.218Z,16.57
2019-02-28T02:51:27.125Z,18.33
2019-02-28T02:53:57.800Z,20.07
2019-02-28T02:56:30.996Z,19.43
2019-02-28T02:59:02.393Z,15.40
2019-02-28T03:01:32.738Z,18.37
2019-02-28T03:04:02.601Z,16.33
2019-02-28T03:06:33.059Z,13.30
2019-02-28T03:09:10.020Z,18.07
2019-02-28T03:11:38.699Z,15.60
2019-02-28T03:14:09.712Z,19.70
2019-02-28T03:16:40.379Z,14.70
2019-02-28T03:19:11.195Z,13.23
2019-02-28T03:21:41.908Z,17.50
2019-02-28T03:24:15.178Z,15.03
2019-02-28T03:26:44.573Z,17.70
2019-02-28T03:29:14.572Z,17.30
2019-02-28T03:31:54.512Z,15.03
2019-02-28T03:34:17.429Z,17.43
2019-02-28T03:36:55.506Z,15.97
2019-02-28T03:39:24.120Z,14.90
2019-02-28T03:41:52.912Z,15.57
2019-02-28T03:44:24.036Z,16.60
2019-02-28T03:46:55.251Z,13.37
2019-02-28T03:49:25.090Z,11.90
2019-02-28T03:51:55.203Z,18.07
2019-02-28T03:54:29.810Z,13.17
2019-02-28T03:57:00.750Z,17.87
2019-02-28T03:59:30.543Z,13.93
2019-02-28T04:02:04.857Z,17.47
2019-02-28T04:04:35.882Z,15.23
2019-02-28T04:07:06.504Z,15.83
2019-02-28T04:09:43.763Z,16.97
2019-02-28T04:12:09.834Z,17.93
2019-02-28T04:14:40.172Z,17.97
2019-02-28T04:17:10.908Z,13.80
2019-02-28T04:19:41.788Z,17.07
2019-02-28T04:22:12.002Z,13.53
2019-02-28T04:24:46.220Z,16.30
2019-02-28T04:27:14.930Z,15.33
2019-02-28T04:29:45.495Z,17.97
2019-02-28T04:32:15.738Z,16.87
2019-02-28T04:34:49.034Z,18.70
2019-02-28T04:37:18.164Z,15.27
2019-02-28T04:39:49.373Z,17.30
2019-02-28T04:42:19.565Z,15.33
2019-02-28T04:44:51.945Z,17.07
2019-02-28T04:47:21.202Z,15.20
2019-02-28T04:49:53.477Z,16.87
2019-02-28T04:52:22.606Z,16.30
2019-02-28T04:54:52.485Z,16.53
2019-02-28T04:57:22.228Z,20.53
2019-02-28T04:59:52.031Z,18.30
2019-02-28T05:02:21.827Z,18.00
2019-02-28T05:04:51.616Z,18.33
2019-02-28T05:07:21.405Z,15.10
2019-02-28T05:09:51.211Z,17.70
2019-02-28T05:12:20.994Z,17.40
2019-02-28T05:14:50.765Z,20.70
2019-02-28T05:17:22.261Z,16.60
2019-02-28T05:19:52.977Z,14.47
2019-02-28T05:22:24.439Z,16.63
2019-02-28T05:24:54.247Z,19.77
2019-02-28T05:27:24.540Z,16.30
2019-02-28T05:29:55.515Z,15.07
2019-02-28T05:32:25.276Z,17.27
2019-02-28T05:34:55.076Z,15.17
2019-02-28T05:37:24.854Z,15.00
2019-02-28T05:39:54.683Z,19.10
2019-02-28T05:42:24.430Z,19.07
2019-02-28T05:44:54.259Z,28.00
2019-02-28T05:47:25.946Z,19.60
2019-02-28T05:49:55.589Z,16.67
2019-02-28T05:52:25.472Z,17.53
2019-02-28T05:54:55.226Z,19.50
2019-02-28T05:57:25.018Z,17.80
2019-02-28T05:59:55.209Z,19.50
2019-02-28T06:02:25.643Z,16.73
2019-02-28T06:04:55.565Z,20.40
2019-02-28T06:07:28.778Z,18.37
2019-02-28T06:09:57.552Z,15.50
2019-02-28T06:12:27.326Z,14.93
2019-02-28T06:15:02.228Z,16.87
2019-02-28T06:17:29.038Z,17.17
2019-02-28T06:19:58.841Z,20.77
2019-02-28T06:22:36.060Z,19.77
2019-02-28T06:25:02.506Z,19.13
2019-02-28T06:27:41.081Z,23.00
2019-02-28T06:30:08.662Z,18.60
2019-02-28T06:32:36.929Z,17.60
2019-02-28T06:35:07.022Z,20.20
2019-02-28T06:37:38.381Z,19.47
2019-02-28T06:40:11.475Z,20.27
2019-02-28T06:42:43.562Z,18.00
2019-02-28T06:45:14.385Z,19.43
2019-02-28T06:47:48.630Z,18.17
2019-02-28T06:50:16.954Z,26.60
2019-02-28T06:52:46.732Z,20.03
2019-02-28T06:55:20.894Z,17.97
2019-02-28T06:57:54.398Z,17.80
2019-02-28T07:00:24.706Z,20.30
2019-02-28T07:02:54.575Z,18.43
2019-02-28T07:05:26.051Z,18.63
2019-02-28T07:07:57.261Z,18.97
2019-02-28T07:10:27.527Z,22.00
2019-02-28T07:12:57.794Z,18.37
2019-02-28T07:15:27.727Z,18.13
2019-02-28T07:17:57.571Z,20.07
2019-02-28T07:20:28.648Z,20.20
2019-02-28T07:22:58.827Z,17.67
2019-02-28T07:25:28.707Z,18.50
2019-02-28T07:28:01.569Z,19.43
2019-02-28T07:30:29.970Z,17.93
2019-02-28T07:32:59.805Z,23.70
2019-02-28T07:35:34.035Z,19.87
2019-02-28T07:38:01.901Z,19.00
2019-02-28T07:40:33.275Z,20.17
2019-02-28T07:43:03.212Z,18.67
2019-02-28T07:45:34.054Z,17.90
2019-02-28T07:48:03.967Z,19.50
2019-02-28T07:50:33.748Z,21.20
2019-02-28T07:53:05.527Z,20.83
2019-02-28T07:55:35.233Z,17.07
2019-02-28T07:58:05.011Z,20.40
2019-02-28T08:00:34.765Z,19.30
2019-02-28T08:03:04.576Z,19.93
2019-02-28T08:05:34.437Z,20.57
2019-02-28T08:08:04.255Z,18.23
2019-02-28T08:10:34.171Z,22.37
2019-02-28T08:13:04.153Z,18.33
2019-02-28T08:15:34.063Z,19.17
2019-02-28T08:18:05.773Z,25.60
2019-02-28T08:20:35.481Z,20.73
2019-02-28T08:23:05.357Z,21.27
2019-02-28T08:25:35.140Z,19.13
2019-02-28T08:28:04.931Z,21.67
2019-02-28T08:30:34.788Z,19.13
2019-02-28T08:33:04.588Z,20.80
2019-02-28T08:35:35.820Z,20.10
2019-02-28T08:38:06.862Z,22.30
2019-02-28T08:40:36.822Z,22.57
2019-02-28T08:43:06.618Z,23.37
2019-02-28T08:45:36.430Z,21.63
2019-02-28T08:48:06.510Z,20.20
2019-02-28T08:50:36.317Z,24.07
2019-02-28T08:53:06.106Z,21.23
2019-02-28T08:55:38.452Z,19.97
2019-02-28T08:58:08.520Z,22.07
2019-02-28T09:00:39.516Z,25.57
2019-02-28T09:03:09.394Z,24.20
2019-02-28T09:05:39.254Z,25.57
2019-02-28T09:08:09.155Z,23.00
2019-02-28T09:10:39.031Z,22.90
2019-02-28T09:13:08.972Z,21.87
2019-02-28T09:15:38.779Z,22.37
2019-02-28T09:18:09.638Z,22.93
2019-02-28T09:20:41.439Z,27.73
2019-02-28T09:23:11.116Z,27.20
2019-02-28T09:25:40.979Z,27.70
2019-02-28T09:28:13.145Z,26.90
2019-02-28T09:30:42.414Z,29.93
2019-02-28T09:33:13.807Z,28.47
2019-02-28T09:35:46.272Z,28.37
2019-02-28T09:38:15.057Z,29.43
2019-02-28T09:40:46.570Z,30.10
2019-02-28T09:43:18.641Z,27.07
2019-02-28T09:45:48.466Z,31.13
2019-02-28T09:48:18.274Z,30.70
2019-02-28T09:50:48.220Z,29.57
2019-02-28T09:53:18.086Z,28.33
2019-02-28T09:55:47.883Z,31.93
2019-02-28T09:58:17.673Z,30.23
2019-02-28T10:00:50.250Z,29.63
2019-02-28T10:03:19.585Z,31.20
2019-02-28T10:05:52.156Z,30.07
2019-02-28T10:08:22.837Z,33.83
2019-02-28T10:10:55.943Z,30.53
2019-02-28T10:13:25.058Z,35.07
2019-02-28T10:15:55.157Z,30.60
2019-02-28T10:18:25.491Z,33.00
2019-02-28T10:20:55.637Z,33.77
2019-02-28T10:23:25.499Z,33.07
2019-02-28T10:25:55.316Z,34.63
2019-02-28T10:28:25.206Z,33.67
2019-02-28T10:30:55.026Z,33.63
2019-02-28T10:33:29.320Z,36.10
2019-02-28T10:35:59.571Z,37.90
2019-02-28T10:38:33.121Z,34.13
2019-02-28T10:41:03.361Z,34.57
2019-02-28T10:43:33.214Z,35.70
2019-02-28T10:46:03.968Z,32.97
2019-02-28T10:48:41.940Z,31.83
2019-02-28T10:51:14.102Z,34.27
2019-02-28T10:53:42.909Z,33.70
2019-02-28T10:56:14.245Z,38.40
2019-02-28T10:58:55.998Z,31.97
2019-02-28T11:01:26.421Z,31.87
2019-02-28T11:03:56.403Z,33.90
2019-02-28T11:06:28.272Z,34.07
2019-02-28T11:08:59.653Z,33.30
2019-02-28T11:11:30.264Z,35.50
2019-02-28T11:14:03.967Z,37.73
2019-02-28T11:16:32.937Z,33.33
2019-02-28T11:19:03.610Z,35.13
2019-02-28T11:21:34.117Z,32.80
2019-02-28T11:24:04.894Z,35.67
2019-02-28T11:26:35.601Z,34.47
2019-02-28T11:29:05.448Z,35.20
2019-02-28T11:31:35.238Z,33.07
2019-02-28T11:34:05.147Z,34.07
2019-02-28T11:36:35.178Z,39.57
2019-02-28T11:39:07.221Z,34.70
2019-02-28T11:41:37.543Z,34.00
2019-02-28T11:44:09.304Z,37.97
2019-02-28T11:46:39.272Z,34.40
2019-02-28T11:49:09.101Z,30.23
2019-02-28T11:51:40.821Z,35.83
2019-02-28T11:54:12.242Z,32.87
2019-02-28T11:56:44.128Z,33.20
2019-02-28T11:59:14.409Z,34.80
2019-02-28T12:01:47.518Z,33.20
2019-02-28T12:04:16.270Z,30.83
2019-02-28T12:06:46.734Z,32.73
2019-02-28T12:09:19.244Z,31.00
2019-02-28T12:11:48.859Z,33.60
2019-02-28T12:14:29.309Z,33.37
2019-02-28T12:17:04.805Z,32.13
2019-02-28T12:19:35.420Z,31.10
2019-02-28T12:22:09.102Z,27.70
2019-02-28T12:24:39.197Z,30.93
2019-02-28T12:27:21.293Z,29.70
2019-02-28T12:29:52.587Z,29.60
2019-02-28T12:32:23.166Z,30.50
2019-02-28T12:34:53.553Z,34.73
2019-02-28T12:37:23.645Z,28.90
2019-02-28T12:39:53.537Z,28.73
2019-02-28T12:42:24.483Z,29.47
2019-02-28T12:44:54.346Z,30.60
2019-02-28T12:47:25.843Z,30.37
2019-02-28T12:49:57.276Z,29.10
2019-02-28T12:52:27.326Z,28.70
2019-02-28T12:54:57.691Z,28.20
2019-02-28T12:57:27.899Z,30.87
2019-02-28T12:59:57.826Z,28.50
2019-02-28T13:02:27.702Z,31.97
2019-02-28T13:04:57.794Z,28.13
2019-02-28T13:07:30.420Z,34.97
2019-02-28T13:09:59.301Z,30.20
2019-02-28T13:12:29.201Z,29.87
2019-02-28T13:14:59.190Z,30.30
2019-02-28T13:17:31.757Z,25.90
2019-02-28T13:20:00.897Z,26.67
2019-02-28T13:22:30.798Z,28.33
2019-02-28T13:25:00.938Z,25.60
2019-02-28T13:27:33.856Z,23.93
2019-02-28T13:30:26.644Z,26.43
2019-02-28T13:32:56.781Z,24.77
2019-02-28T13:35:28.472Z,24.13
2019-02-28T13:37:58.676Z,21.40
2019-02-28T13:40:28.563Z,23.93
2019-02-28T13:43:01.753Z,20.67
2019-02-28T13:45:31.913Z,24.43
2019-02-28T13:48:03.392Z,21.87
2019-02-28T13:50:34.418Z,23.33
2019-02-28T13:53:17.464Z,21.13
2019-02-28T13:55:37.416Z,23.47
2019-02-28T13:58:09.609Z,20.07
2019-02-28T14:00:44.296Z,22.60
2019-02-28T14:03:11.773Z,21.67
2019-02-28T14:05:41.955Z,22.17
2019-02-28T14:08:14.744Z,21.47
2019-02-28T14:10:44.810Z,23.70
2019-02-28T14:13:17.508Z,21.33
2019-02-28T14:15:52.357Z,20.50
2019-02-28T14:18:19.639Z,21.30
2019-02-28T14:20:49.661Z,26.93
2019-02-28T14:23:20.712Z,21.30
2019-02-28T14:25:51.689Z,20.93
2019-02-28T14:28:21.587Z,20.33
2019-02-28T14:30:54.375Z,20.80
2019-02-28T14:33:23.434Z,24.73
2019-02-28T14:35:56.037Z,23.27
2019-02-28T14:38:29.633Z,22.67
2019-02-28T14:41:00.737Z,25.27
2019-02-28T14:43:30.591Z,21.27
2019-02-28T14:46:00.408Z,23.07
2019-02-28T14:48:30.250Z,18.87
2019-02-28T14:51:00.087Z,23.37
2019-02-28T14:53:31.661Z,22.63
2019-02-28T14:56:04.398Z,19.37
2019-02-28T14:58:33.055Z,19.40
2019-02-28T15:01:04.771Z,21.30
2019-02-28T15:03:35.899Z,22.87
2019-02-28T15:06:06.276Z,24.73
2019-02-28T15:08:36.138Z,21.73
2019-02-28T15:11:10.235Z,29.50
2019-02-28T15:13:41.725Z,27.93
2019-02-28T15:16:18.535Z,26.13
2019-02-28T15:18:47.466Z,27.23
2019-02-28T15:21:18.487Z,27.73
2019-02-28T15:23:50.113Z,28.13
2019-02-28T15:26:20.104Z,28.90
2019-02-28T15:28:52.498Z,26.67
2019-02-28T15:31:22.347Z,29.43
2019-02-28T15:33:52.841Z,30.90
2019-02-28T15:36:24.285Z,28.27
2019-02-28T15:38:55.432Z,29.50
2019-02-28T15:41:25.295Z,28.60
2019-02-28T15:43:56.240Z,31.63
2019-02-28T15:46:26.051Z,29.50
2019-02-28T15:48:55.887Z,27.90
2019-02-28T15:51:29.064Z,29.93
2019-02-28T15:53:57.322Z,28.70
2019-02-28T15:56:27.386Z,29.40
2019-02-28T15:58:57.218Z,28.10
2019-02-28T16:01:32.204Z,28.97
2019-02-28T16:04:01.161Z,29.43
2019-02-28T16:06:31.006Z,30.67
2019-02-28T16:09:00.830Z,29.43
2019-02-28T16:11:32.379Z,28.23
2019-02-28T16:14:02.659Z,30.57
2019-02-28T16:16:32.601Z,28.87
2019-02-28T16:19:11.187Z,29.60
2019-02-28T16:21:45.086Z,31.53
2019-02-28T16:24:15.668Z,28.73
2019-02-28T16:26:46.195Z,29.57
2019-02-28T16:29:20.634Z,30.87
2019-02-28T16:31:49.210Z,27.83
2019-02-28T16:34:20.037Z,32.27
2019-02-28T16:36:50.037Z,29.63
2019-02-28T16:39:19.852Z,32.50
2019-02-28T16:41:49.751Z,30.73
2019-02-28T16:44:19.752Z,32.47
2019-02-28T16:46:49.954Z,34.57
2019-02-28T16:49:20.724Z,31.30
2019-02-28T16:51:50.613Z,35.57
2019-02-28T16:54:22.590Z,38.10
2019-02-28T16:56:52.085Z,31.40
2019-02-28T16:59:21.977Z,32.50
2019-02-28T17:01:54.846Z,33.53
2019-02-28T17:04:23.318Z,31.53
2019-02-28T17:06:53.166Z,32.43
2019-02-28T17:09:30.227Z,34.40
2019-02-28T17:12:29.402Z,31.97
2019-02-28T17:14:59.310Z,32.30
2019-02-28T17:17:47.128Z,34.03
2019-02-28T17:20:15.750Z,35.47
2019-02-28T17:22:45.618Z,29.73
2019-02-28T17:28:33.012Z,29.33
2019-02-28T17:31:20.221Z,25.70
2019-02-28T17:33:50.153Z,25.33
2019-02-28T17:36:20.626Z,25.07
2019-02-28T17:38:50.537Z,27.40
2019-02-28T17:41:20.377Z,25.07
2019-02-28T17:44:38.664Z,27.03
2019-02-28T17:47:25.686Z,25.07
2019-02-28T17:50:43.999Z,21.20
2019-02-28T17:54:25.579Z,20.63
2019-02-28T17:57:34.448Z,22.07
2019-02-28T18:00:16.171Z,21.27
2019-02-28T18:03:30.896Z,18.57
2019-02-28T18:06:37.546Z,23.43
2019-02-28T18:09:44.957Z,17.27
2019-02-28T18:12:57.366Z,16.30
2019-02-28T18:16:01.174Z,16.07
2019-02-28T18:19:07.891Z,11.23
2019-02-28T18:22:16.052Z,11.83
2019-02-28T18:25:17.036Z,11.97
2019-02-28T18:28:08.651Z,10.83
2019-02-28T18:31:27.797Z,9.37
2019-02-28T18:34:07.028Z,9.40
2019-02-28T18:36:36.902Z,13.53
2019-02-28T18:39:11.486Z,11.80
2019-02-28T18:41:43.446Z,10.57
2019-02-28T18:44:14.467Z,8.23
2019-02-28T18:46:44.322Z,9.07
2019-02-28T18:49:14.212Z,10.27
2019-02-28T18:51:44.096Z,8.90
2019-02-28T18:54:15.236Z,10.50
2019-02-28T18:56:45.319Z,11.93
2019-02-28T18:59:17.236Z,9.80
2019-02-28T19:01:47.304Z,10.73
2019-02-28T19:04:18.735Z,9.40
2019-02-28T19:06:48.990Z,12.10
2019-02-28T19:09:25.870Z,10.83
2019-02-28T19:11:55.658Z,9.87
2019-02-28T19:14:28.142Z,15.30
2019-02-28T19:16:58.246Z,11.70
2019-02-28T19:19:30.130Z,11.40
2019-02-28T19:22:00.177Z,11.50
2019-02-28T19:24:30.269Z,10.37
2019-02-28T19:27:02.989Z,12.90
2019-02-28T19:29:36.634Z,10.63
2019-02-28T19:32:06.540Z,11.90
2019-02-28T19:34:36.529Z,11.67
2019-02-28T19:37:09.829Z,12.37
2019-02-28T19:39:39.833Z,11.93
2019-02-28T19:42:09.857Z,12.27
2019-02-28T19:44:40.306Z,13.00
2019-02-28T19:47:10.321Z,14.17
2019-02-28T19:49:40.263Z,11.80
2019-02-28T19:52:10.336Z,13.53
2019-02-28T19:54:41.513Z,15.33
2019-02-28T19:57:14.582Z,16.03
2019-02-28T19:59:44.490Z,14.03
2019-02-28T20:02:15.196Z,14.47
2019-02-28T20:04:45.093Z,15.53
2019-02-28T20:07:17.935Z,15.25
2019-02-28T20:09:50.866Z,17.55
2019-02-28T20:12:20.988Z,17.02
2019-02-28T20:14:51.057Z,15.80
2019-02-28T20:17:20.915Z,15.85
2019-02-28T20:19:50.943Z,14.80
2019-02-28T20:22:20.884Z,16.57
2019-02-28T20:24:54.945Z,15.48
2019-02-28T20:27:26.540Z,13.95
2019-02-28T20:29:56.528Z,17.30
2019-02-28T20:32:26.454Z,14.60
2019-02-28T20:34:56.564Z,16.85
2019-02-28T20:37:26.630Z,17.07
2019-02-28T20:39:56.611Z,14.70
2019-02-28T20:42:27.602Z,15.70
2019-02-28T20:44:57.514Z,15.80
2019-02-28T20:47:27.475Z,16.20
2019-02-28T20:49:57.410Z,17.00
2019-02-28T20:52:27.347Z,15.23
2019-02-28T20:54:57.269Z,17.32
2019-02-28T20:57:27.422Z,17.57
2019-02-28T21:00:00.434Z,16.95
2019-02-28T21:02:30.371Z,16.50
2019-02-28T21:05:00.370Z,17.10
2019-02-28T21:07:30.709Z,19.05
2019-02-28T21:10:00.602Z,17.15
2019-02-28T21:12:30.837Z,18.20
2019-02-28T21:15:01.524Z,19.82
2019-02-28T21:20:28.297Z,18.83
2019-02-28T21:22:58.365Z,17.48
2019-02-28T21:25:28.518Z,18.67
2019-02-28T21:28:02.515Z,19.77
2019-02-28T21:30:37.383Z,21.20
2019-02-28T21:33:08.985Z,18.15
2019-02-28T21:36:01.041Z,19.07
2019-02-28T21:38:35.322Z,17.30
2019-02-28T21:41:09.339Z,19.37
2019-02-28T21:43:43.295Z,18.45
2019-02-28T21:46:29.078Z,19.25
2019-02-28T21:49:02.332Z,26.33
2019-02-28T21:51:40.185Z,21.70
2019-02-28T21:54:10.591Z,21.00
2019-02-28T21:57:15.069Z,19.23
2019-02-28T21:59:53.935Z,18.00
2019-02-28T22:02:25.929Z,19.92
2019-02-28T22:04:55.927Z,17.57
2019-02-28T22:07:25.827Z,18.70
2019-02-28T22:09:55.846Z,20.05
2019-02-28T22:12:25.858Z,18.82
2019-02-28T22:14:55.797Z,17.70
2019-02-28T22:17:25.710Z,18.93
2019-02-28T22:19:55.622Z,21.20
2019-02-28T22:22:25.608Z,18.30
2019-02-28T22:24:55.600Z,17.95
2019-02-28T22:27:25.549Z,17.98
2019-02-28T22:29:57.076Z,20.72
2019-02-28T22:32:33.354Z,20.12
2019-02-28T22:35:31.251Z,18.37
2019-02-28T22:38:01.165Z,20.17
2019-02-28T22:40:31.093Z,18.98
2019-02-28T22:43:00.946Z,18.40
2019-02-28T22:45:30.816Z,17.82
2019-02-28T22:48:00.628Z,17.30
2019-02-28T22:50:30.556Z,17.48
2019-02-28T22:53:00.391Z,17.73
2019-02-28T22:55:30.379Z,20.77
2019-02-28T22:58:05.731Z,17.23
2019-02-28T23:00:59.678Z,15.57
2019-02-28T23:03:32.675Z,17.87
2019-02-28T23:06:02.783Z,16.57
2019-02-28T23:08:33.720Z,19.23
2019-02-28T23:11:08.019Z,15.32
2019-02-28T23:13:38.445Z,16.97
2019-02-28T23:16:15.990Z,17.17
2019-02-28T23:18:47.777Z,17.07
2019-02-28T23:21:21.413Z,16.12
2019-02-28T23:23:58.364Z,15.10
2019-02-28T23:26:32.012Z,18.25
2019-02-28T23:29:18.620Z,15.90
2019-02-28T23:32:37.156Z,15.58
2019-02-28T23:35:20.558Z,13.95
2019-02-28T23:37:53.293Z,15.65
2019-02-28T23:40:24.607Z,16.40
2019-02-28T23:43:00.980Z,13.03
2019-02-28T23:45:31.150Z,13.58
2019-02-28T23:48:03.845Z,15.28
2019-02-28T23:50:34.163Z,14.93
2019-02-28T23:53:06.023Z,12.95
2019-02-28T23:55:36.015Z,15.95
2019-02-28T23:58:10.025Z,15.83
